チタ の空港の天気 - METARとTAF

チタ・カダラ空港 ( UIAA / HTA ) - ロシア チタ
飛行場実況気象(Metar)
観測時間02/17 23:30 YAKT (02/17 14:30 UTC)
風向・風速西南西 2m/s
視程10km以上
天気現象
なし
気温-11℃
湿度47%
気圧1013hPa
METARUIAA 171430Z AUTO 24002MPS 9999 NCD M11/M20 Q1013 RMK QFE701/0935
過去の天気等 Google飛行場航空写真 Wunderground天気予報

過去48時間のMETAR

飛行場予報(TAF)
発表時間: 2/17 23:00 YAKT (2/17 14:00 UTC)
予報対象時間: 18日0時 YAKT ~ 19日0時 YAKT
風向・風速南西 3m/s
視程10km以上
なし
TAF UIAA 171400Z 1715/1815 22003MPS 9999 NSC